Hlavní strana
METAR-TAF:

METAR-TAF

Letiště :

Torsby, Švédsko

zeměpisná šířka: 60-09-17N, zeměpisná délka: 12-59-40E, výška: 120 m

Aktuální stav počasí

Zpráva byla vytvořena před 34 minutami, v 17:50 UTC
Severoseverozápadní vítr 9 kt
Teplota -1°C
Vlhkost vzduchu 43%
Tlak 1018 hPa
Viditelnost 10 km a více

METAR: ESST 071750Z AUTO 33009KT 9999 NCD M01/M12 Q1018

Čas: 19:24 (18:24 UTC)


TAF: chybějící

Stav a předpovědi počasí z více než 4 000 letišť (zprávy METAR a TAF).

Červené a žluté tečky na mapě představují dostupné meteorologické stanice.

Když kurzor umístíte na tečku, zobrazí se název stanice.

Pak kliknutím zobrazíte stav a předpověď počasí.

Chcete-li změnit mapu, kliknutím na zelené tlačítko se znaménkem +mapu přiblížíte, kliknutím na zelené tlačítko se znaménkem – mapu oddálíte a kliknutím na zelené šipky přejdete na sousední mapy.


METAR-TAF: